Palo, Iowa
Current Conditions -  °F | °C
As of 5:52 PM on Friday 24 Oct 2014 (Local Time) from KCID Reporting Station
Haze Haze  
Wind Chill: 60°   Ceiling: 1800
Heat Index: 60°   Visibility: 2.5mi
Dew Point: 60°   Wind: 7mph
Humidity: 100%   Direction: 200°SSW
Pressure: 29.92"   Gusts: NA
Location:  42.07°N, 91.8°W
Report Text: KCID 242252Z 20006KT 2 1/2SM BR FEW008 BKN018 OVC029 16/16 A2992 RMK AO2 RAE2157B27E37 SLP132 P0000 T01560156
Loading
Personal Weather Stations






























Interactive Weather Map
Tropical Storm Tracking
New forecast layout! Learn more

10-Day Weather Forecast

Advertisements
Track Severe Weather on mobile